Terminal Aerodrome Forecast
Issued by NWS

Home | Current Version | Previous Version | Text Only | Print | Product List | Glossary On
Versions: 1 2 3 4 5 6 7 8 9 10 11 12 13 14 15 16
000
FTUS41 KRNK 130551 AAA
TAFBCB
TAF AMD
KBCB 130551Z 1306/1406 30015G25KT P6SM -SHSN BKN025
      TEMPO 1306/1308 1/2SM SHSN OVC010
     FM131100 29013G22KT P6SM SCT035
     FM132200 23007KT P6SM SCT050 BKN250=

USA.gov is the U.S. government's official web portal to all federal, state and local government web resources and services.